sensor_id;sensor_type;location;lat;lon;timestamp;P1;durP1;ratioP1;P2;durP2;ratioP2
30681;SDS011;17439;48.092;11.842;2023-04-10T00:00:27;16.60;;;7.28;;
30681;SDS011;17439;48.092;11.842;2023-04-10T00:02:54;15.82;;;7.93;;
30681;SDS011;17439;48.092;11.842;2023-04-10T00:05:21;17.23;;;8.13;;
30681;SDS011;17439;48.092;11.842;2023-04-10T00:07:47;16.40;;;7.57;;
30681;SDS011;17439;48.092;11.842;2023-04-10T00:10:14;14.90;;;7.57;;
30681;SDS011;17439;48.092;11.842;2023-04-10T00:12:41;17.02;;;8.68;;
30681;SDS011;17439;48.092;11.842;2023-04-10T00:15:08;16.55;;;7.70;;
30681;SDS011;17439;48.092;11.842;2023-04-10T00:17:35;18.67;;;8.90;;
30681;SDS011;17439;48.092;11.842;2023-04-10T00:20:01;18.35;;;8.93;;
30681;SDS011;17439;48.092;11.842;2023-04-10T00:22:28;18.75;;;8.65;;
30681;SDS011;17439;48.092;11.842;2023-04-10T00:24:55;17.67;;;8.85;;
30681;SDS011;17439;48.092;11.842;2023-04-10T00:27:22;21.75;;;9.13;;
30681;SDS011;17439;48.092;11.842;2023-04-10T00:29:48;18.17;;;8.52;;
30681;SDS011;17439;48.092;11.842;2023-04-10T00:32:15;19.23;;;8.50;;
30681;SDS011;17439;48.092;11.842;2023-04-10T00:34:42;19.77;;;9.15;;
30681;SDS011;17439;48.092;11.842;2023-04-10T00:37:08;21.15;;;9.25;;
30681;SDS011;17439;48.092;11.842;2023-04-10T00:39:35;20.30;;;8.50;;
30681;SDS011;17439;48.092;11.842;2023-04-10T00:42:02;16.63;;;7.95;;
30681;SDS011;17439;48.092;11.842;2023-04-10T00:44:28;19.73;;;8.85;;
30681;SDS011;17439;48.092;11.842;2023-04-10T00:46:55;15.25;;;7.53;;
30681;SDS011;17439;48.092;11.842;2023-04-10T00:49:22;19.52;;;8.18;;
30681;SDS011;17439;48.092;11.842;2023-04-10T00:51:49;17.70;;;7.03;;
30681;SDS011;17439;48.092;11.842;2023-04-10T00:54:16;23.00;;;7.73;;
30681;SDS011;17439;48.092;11.842;2023-04-10T00:56:46;18.75;;;7.75;;
30681;SDS011;17439;48.092;11.842;2023-04-10T00:59:13;15.48;;;6.75;;
30681;SDS011;17439;48.092;11.842;2023-04-10T01:01:40;15.48;;;7.25;;
30681;SDS011;17439;48.092;11.842;2023-04-10T01:12:16;15.80;;;7.15;;
30681;SDS011;17439;48.092;11.842;2023-04-10T01:17:38;19.35;;;8.07;;
30681;SDS011;17439;48.092;11.842;2023-04-10T01:26:01;18.88;;;7.68;;
30681;SDS011;17439;48.092;11.842;2023-04-10T01:31:32;19.08;;;8.57;;
30681;SDS011;17439;48.092;11.842;2023-04-10T01:34:26;16.02;;;8.15;;
30681;SDS011;17439;48.092;11.842;2023-04-10T01:36:59;15.68;;;7.93;;
30681;SDS011;17439;48.092;11.842;2023-04-10T01:39:28;16.27;;;7.53;;
30681;SDS011;17439;48.092;11.842;2023-04-10T01:41:58;18.08;;;7.88;;
30681;SDS011;17439;48.092;11.842;2023-04-10T01:44:37;17.88;;;8.23;;
30681;SDS011;17439;48.092;11.842;2023-04-10T01:47:07;19.60;;;8.05;;
30681;SDS011;17439;48.092;11.842;2023-04-10T01:49:34;17.98;;;8.95;;
30681;SDS011;17439;48.092;11.842;2023-04-10T01:52:04;22.58;;;9.65;;
30681;SDS011;17439;48.092;11.842;2023-04-10T01:54:32;19.35;;;9.65;;
30681;SDS011;17439;48.092;11.842;2023-04-10T01:57:01;18.15;;;7.70;;
30681;SDS011;17439;48.092;11.842;2023-04-10T01:59:37;19.38;;;7.88;;
30681;SDS011;17439;48.092;11.842;2023-04-10T02:02:04;18.83;;;8.73;;
30681;SDS011;17439;48.092;11.842;2023-04-10T02:04:31;18.67;;;8.50;;
30681;SDS011;17439;48.092;11.842;2023-04-10T02:12:31;21.25;;;10.00;;
30681;SDS011;17439;48.092;11.842;2023-04-10T02:15:04;19.70;;;9.23;;
30681;SDS011;17439;48.092;11.842;2023-04-10T02:17:32;20.08;;;9.55;;
30681;SDS011;17439;48.092;11.842;2023-04-10T02:20:01;21.40;;;10.10;;
30681;SDS011;17439;48.092;11.842;2023-04-10T02:22:28;17.42;;;8.30;;
30681;SDS011;17439;48.092;11.842;2023-04-10T02:24:56;21.67;;;8.73;;
30681;SDS011;17439;48.092;11.842;2023-04-10T02:27:30;17.00;;;8.20;;
30681;SDS011;17439;48.092;11.842;2023-04-10T02:30:01;18.73;;;8.80;;
30681;SDS011;17439;48.092;11.842;2023-04-10T02:32:31;23.60;;;10.25;;
30681;SDS011;17439;48.092;11.842;2023-04-10T02:34:58;18.60;;;8.45;;
30681;SDS011;17439;48.092;11.842;2023-04-10T02:37:25;19.63;;;9.80;;
30681;SDS011;17439;48.092;11.842;2023-04-10T02:39:52;14.82;;;7.45;;
30681;SDS011;17439;48.092;11.842;2023-04-10T02:42:21;19.38;;;8.30;;
30681;SDS011;17439;48.092;11.842;2023-04-10T02:44:50;14.90;;;7.03;;
30681;SDS011;17439;48.092;11.842;2023-04-10T02:47:16;17.85;;;7.82;;
30681;SDS011;17439;48.092;11.842;2023-04-10T02:52:14;12.32;;;6.22;;
30681;SDS011;17439;48.092;11.842;2023-04-10T02:54:40;14.32;;;6.55;;
30681;SDS011;17439;48.092;11.842;2023-04-10T02:57:07;17.52;;;8.40;;
30681;SDS011;17439;48.092;11.842;2023-04-10T02:59:34;17.17;;;7.93;;
30681;SDS011;17439;48.092;11.842;2023-04-10T03:02:03;17.38;;;7.07;;
30681;SDS011;17439;48.092;11.842;2023-04-10T03:04:33;15.57;;;7.13;;
30681;SDS011;17439;48.092;11.842;2023-04-10T03:07:00;14.38;;;7.57;;
30681;SDS011;17439;48.092;11.842;2023-04-10T03:09:27;18.42;;;8.18;;
30681;SDS011;17439;48.092;11.842;2023-04-10T03:11:53;15.00;;;6.75;;
30681;SDS011;17439;48.092;11.842;2023-04-10T03:14:20;13.45;;;6.65;;
30681;SDS011;17439;48.092;11.842;2023-04-10T03:16:47;15.48;;;6.13;;
30681;SDS011;17439;48.092;11.842;2023-04-10T03:19:13;18.15;;;7.55;;
30681;SDS011;17439;48.092;11.842;2023-04-10T03:21:40;12.75;;;7.15;;
30681;SDS011;17439;48.092;11.842;2023-04-10T03:24:07;12.68;;;5.72;;
30681;SDS011;17439;48.092;11.842;2023-04-10T03:26:33;14.00;;;6.05;;
30681;SDS011;17439;48.092;11.842;2023-04-10T03:29:00;13.52;;;6.07;;
30681;SDS011;17439;48.092;11.842;2023-04-10T03:31:27;11.70;;;5.85;;
30681;SDS011;17439;48.092;11.842;2023-04-10T03:33:57;13.48;;;6.63;;
30681;SDS011;17439;48.092;11.842;2023-04-10T03:36:24;10.63;;;5.45;;
30681;SDS011;17439;48.092;11.842;2023-04-10T03:41:18;10.43;;;4.90;;
30681;SDS011;17439;48.092;11.842;2023-04-10T03:43:45;11.52;;;5.63;;
30681;SDS011;17439;48.092;11.842;2023-04-10T03:46:12;11.45;;;5.22;;
30681;SDS011;17439;48.092;11.842;2023-04-10T03:48:42;10.43;;;4.50;;
30681;SDS011;17439;48.092;11.842;2023-04-10T03:51:09;12.07;;;5.30;;
30681;SDS011;17439;48.092;11.842;2023-04-10T03:53:36;13.10;;;6.05;;
30681;SDS011;17439;48.092;11.842;2023-04-10T03:56:07;11.45;;;5.47;;
30681;SDS011;17439;48.092;11.842;2023-04-10T03:58:34;10.88;;;5.28;;
30681;SDS011;17439;48.092;11.842;2023-04-10T04:01:01;10.68;;;5.45;;
30681;SDS011;17439;48.092;11.842;2023-04-10T04:03:48;11.88;;;5.90;;
30681;SDS011;17439;48.092;11.842;2023-04-10T04:06:44;11.75;;;5.72;;
30681;SDS011;17439;48.092;11.842;2023-04-10T04:09:31;10.30;;;5.75;;
30681;SDS011;17439;48.092;11.842;2023-04-10T04:12:17;8.00;;;4.40;;
30681;SDS011;17439;48.092;11.842;2023-04-10T04:14:56;9.55;;;4.15;;
30681;SDS011;17439;48.092;11.842;2023-04-10T04:17:36;11.05;;;5.38;;
30681;SDS011;17439;48.092;11.842;2023-04-10T04:20:06;10.93;;;5.38;;
30681;SDS011;17439;48.092;11.842;2023-04-10T04:22:56;11.43;;;5.18;;
30681;SDS011;17439;48.092;11.842;2023-04-10T04:25:52;8.60;;;4.72;;
30681;SDS011;17439;48.092;11.842;2023-04-10T04:28:39;11.38;;;6.07;;
30681;SDS011;17439;48.092;11.842;2023-04-10T04:31:20;10.13;;;4.70;;
30681;SDS011;17439;48.092;11.842;2023-04-10T04:34:12;11.85;;;5.57;;
30681;SDS011;17439;48.092;11.842;2023-04-10T04:36:39;10.70;;;4.57;;
30681;SDS011;17439;48.092;11.842;2023-04-10T04:39:24;9.23;;;5.07;;
30681;SDS011;17439;48.092;11.842;2023-04-10T04:42:11;12.75;;;6.22;;
30681;SDS011;17439;48.092;11.842;2023-04-10T04:44:49;11.20;;;4.85;;
30681;SDS011;17439;48.092;11.842;2023-04-10T04:47:34;10.50;;;5.15;;
30681;SDS011;17439;48.092;11.842;2023-04-10T04:50:20;13.23;;;5.18;;
30681;SDS011;17439;48.092;11.842;2023-04-10T04:53:05;12.00;;;5.10;;
30681;SDS011;17439;48.092;11.842;2023-04-10T04:55:51;9.68;;;4.85;;
30681;SDS011;17439;48.092;11.842;2023-04-10T04:58:41;10.13;;;5.03;;
30681;SDS011;17439;48.092;11.842;2023-04-10T05:01:12;12.70;;;5.97;;
30681;SDS011;17439;48.092;11.842;2023-04-10T05:03:51;9.32;;;4.80;;
30681;SDS011;17439;48.092;11.842;2023-04-10T05:06:34;9.20;;;4.43;;
30681;SDS011;17439;48.092;11.842;2023-04-10T05:09:21;10.63;;;5.78;;
30681;SDS011;17439;48.092;11.842;2023-04-10T05:12:00;11.82;;;5.60;;
30681;SDS011;17439;48.092;11.842;2023-04-10T05:14:45;13.70;;;6.60;;
30681;SDS011;17439;48.092;11.842;2023-04-10T05:17:30;13.38;;;5.90;;
30681;SDS011;17439;48.092;11.842;2023-04-10T05:20:15;13.25;;;5.35;;
30681;SDS011;17439;48.092;11.842;2023-04-10T05:23:08;9.32;;;4.88;;
30681;SDS011;17439;48.092;11.842;2023-04-10T05:25:52;12.52;;;5.65;;
30681;SDS011;17439;48.092;11.842;2023-04-10T05:28:35;10.38;;;4.78;;
30681;SDS011;17439;48.092;11.842;2023-04-10T05:31:22;10.95;;;5.20;;
30681;SDS011;17439;48.092;11.842;2023-04-10T05:33:54;12.52;;;5.60;;
30681;SDS011;17439;48.092;11.842;2023-04-10T05:36:41;10.52;;;5.13;;
30681;SDS011;17439;48.092;11.842;2023-04-10T05:39:19;9.23;;;5.05;;
30681;SDS011;17439;48.092;11.842;2023-04-10T05:42:09;12.10;;;5.90;;
30681;SDS011;17439;48.092;11.842;2023-04-10T05:44:52;10.30;;;4.80;;
30681;SDS011;17439;48.092;11.842;2023-04-10T05:47:41;11.98;;;5.50;;
30681;SDS011;17439;48.092;11.842;2023-04-10T05:50:37;14.23;;;5.47;;
30681;SDS011;17439;48.092;11.842;2023-04-10T05:53:27;13.52;;;5.90;;
30681;SDS011;17439;48.092;11.842;2023-04-10T05:56:22;14.18;;;6.90;;
30681;SDS011;17439;48.092;11.842;2023-04-10T05:59:04;16.30;;;8.27;;
30681;SDS011;17439;48.092;11.842;2023-04-10T06:01:44;15.73;;;7.93;;
30681;SDS011;17439;48.092;11.842;2023-04-10T06:04:11;14.13;;;7.03;;
30681;SDS011;17439;48.092;11.842;2023-04-10T06:06:39;14.63;;;7.13;;
30681;SDS011;17439;48.092;11.842;2023-04-10T06:09:05;13.70;;;6.50;;
30681;SDS011;17439;48.092;11.842;2023-04-10T06:11:32;11.57;;;6.05;;
30681;SDS011;17439;48.092;11.842;2023-04-10T06:13:59;14.05;;;6.85;;
30681;SDS011;17439;48.092;11.842;2023-04-10T06:16:36;15.07;;;6.82;;
30681;SDS011;17439;48.092;11.842;2023-04-10T06:19:03;12.38;;;6.57;;
30681;SDS011;17439;48.092;11.842;2023-04-10T06:21:29;14.90;;;7.47;;
30681;SDS011;17439;48.092;11.842;2023-04-10T06:23:56;14.05;;;6.95;;
30681;SDS011;17439;48.092;11.842;2023-04-10T06:26:23;14.55;;;7.18;;
30681;SDS011;17439;48.092;11.842;2023-04-10T06:28:50;13.27;;;6.82;;
30681;SDS011;17439;48.092;11.842;2023-04-10T06:31:18;18.42;;;9.45;;
30681;SDS011;17439;48.092;11.842;2023-04-10T06:33:45;15.43;;;7.40;;
30681;SDS011;17439;48.092;11.842;2023-04-10T06:36:12;13.82;;;5.85;;
30681;SDS011;17439;48.092;11.842;2023-04-10T06:38:46;13.48;;;6.43;;
30681;SDS011;17439;48.092;11.842;2023-04-10T06:41:13;11.68;;;5.88;;
30681;SDS011;17439;48.092;11.842;2023-04-10T06:43:39;12.13;;;5.63;;
30681;SDS011;17439;48.092;11.842;2023-04-10T06:46:06;11.75;;;5.93;;
30681;SDS011;17439;48.092;11.842;2023-04-10T06:48:33;11.20;;;5.55;;
30681;SDS011;17439;48.092;11.842;2023-04-10T06:51:00;10.82;;;5.45;;
30681;SDS011;17439;48.092;11.842;2023-04-10T06:53:26;12.10;;;5.30;;
30681;SDS011;17439;48.092;11.842;2023-04-10T06:55:53;10.73;;;5.60;;
30681;SDS011;17439;48.092;11.842;2023-04-10T06:58:20;12.70;;;5.30;;
30681;SDS011;17439;48.092;11.842;2023-04-10T07:00:47;12.90;;;6.13;;
30681;SDS011;17439;48.092;11.842;2023-04-10T07:03:13;13.25;;;5.80;;
30681;SDS011;17439;48.092;11.842;2023-04-10T07:05:40;8.32;;;4.68;;
30681;SDS011;17439;48.092;11.842;2023-04-10T07:08:07;11.02;;;5.28;;
30681;SDS011;17439;48.092;11.842;2023-04-10T07:10:34;10.15;;;5.13;;
30681;SDS011;17439;48.092;11.842;2023-04-10T07:13:01;12.27;;;6.10;;
30681;SDS011;17439;48.092;11.842;2023-04-10T07:15:27;12.15;;;5.40;;
30681;SDS011;17439;48.092;11.842;2023-04-10T07:17:54;7.97;;;4.25;;
30681;SDS011;17439;48.092;11.842;2023-04-10T07:20:21;11.13;;;5.68;;
30681;SDS011;17439;48.092;11.842;2023-04-10T07:22:47;12.13;;;6.03;;
30681;SDS011;17439;48.092;11.842;2023-04-10T07:25:14;11.15;;;6.43;;
30681;SDS011;17439;48.092;11.842;2023-04-10T07:27:40;10.27;;;6.00;;
30681;SDS011;17439;48.092;11.842;2023-04-10T07:30:07;9.85;;;5.40;;
30681;SDS011;17439;48.092;11.842;2023-04-10T07:32:36;10.68;;;5.22;;
30681;SDS011;17439;48.092;11.842;2023-04-10T07:35:03;9.20;;;5.28;;
30681;SDS011;17439;48.092;11.842;2023-04-10T07:37:30;10.13;;;4.72;;
30681;SDS011;17439;48.092;11.842;2023-04-10T07:39:56;9.25;;;4.50;;
30681;SDS011;17439;48.092;11.842;2023-04-10T07:42:23;11.35;;;5.82;;
30681;SDS011;17439;48.092;11.842;2023-04-10T07:44:49;9.65;;;5.05;;
30681;SDS011;17439;48.092;11.842;2023-04-10T07:47:16;9.43;;;4.45;;
30681;SDS011;17439;48.092;11.842;2023-04-10T07:49:43;9.77;;;4.88;;
30681;SDS011;17439;48.092;11.842;2023-04-10T07:52:09;9.52;;;5.20;;
30681;SDS011;17439;48.092;11.842;2023-04-10T07:54:36;10.30;;;4.88;;
30681;SDS011;17439;48.092;11.842;2023-04-10T07:57:02;9.68;;;5.00;;
30681;SDS011;17439;48.092;11.842;2023-04-10T07:59:29;9.57;;;5.22;;
30681;SDS011;17439;48.092;11.842;2023-04-10T08:01:56;10.88;;;6.05;;
30681;SDS011;17439;48.092;11.842;2023-04-10T08:04:22;11.70;;;6.43;;
30681;SDS011;17439;48.092;11.842;2023-04-10T08:06:49;12.32;;;6.30;;
30681;SDS011;17439;48.092;11.842;2023-04-10T08:09:16;12.55;;;5.88;;
30681;SDS011;17439;48.092;11.842;2023-04-10T08:11:43;9.55;;;5.55;;
30681;SDS011;17439;48.092;11.842;2023-04-10T08:14:09;10.27;;;5.32;;
30681;SDS011;17439;48.092;11.842;2023-04-10T08:16:36;10.50;;;5.10;;
30681;SDS011;17439;48.092;11.842;2023-04-10T08:19:03;11.23;;;5.87;;
30681;SDS011;17439;48.092;11.842;2023-04-10T08:21:30;10.18;;;5.47;;
30681;SDS011;17439;48.092;11.842;2023-04-10T08:23:59;8.68;;;5.10;;
30681;SDS011;17439;48.092;11.842;2023-04-10T08:26:30;11.40;;;5.97;;
30681;SDS011;17439;48.092;11.842;2023-04-10T08:28:58;10.98;;;5.68;;
30681;SDS011;17439;48.092;11.842;2023-04-10T08:31:25;9.80;;;5.18;;
30681;SDS011;17439;48.092;11.842;2023-04-10T08:33:53;9.32;;;5.25;;
30681;SDS011;17439;48.092;11.842;2023-04-10T08:36:20;8.67;;;5.00;;
30681;SDS011;17439;48.092;11.842;2023-04-10T08:38:47;9.48;;;5.43;;
30681;SDS011;17439;48.092;11.842;2023-04-10T08:41:18;12.48;;;5.75;;
30681;SDS011;17439;48.092;11.842;2023-04-10T08:43:45;12.27;;;5.88;;
30681;SDS011;17439;48.092;11.842;2023-04-10T08:46:12;9.75;;;4.97;;
30681;SDS011;17439;48.092;11.842;2023-04-10T08:51:18;6.55;;;3.75;;
30681;SDS011;17439;48.092;11.842;2023-04-10T08:53:51;10.25;;;5.18;;
30681;SDS011;17439;48.092;11.842;2023-04-10T08:56:22;10.07;;;5.53;;
30681;SDS011;17439;48.092;11.842;2023-04-10T08:58:50;8.55;;;4.78;;
30681;SDS011;17439;48.092;11.842;2023-04-10T09:01:17;13.00;;;6.10;;
30681;SDS011;17439;48.092;11.842;2023-04-10T09:03:46;7.72;;;4.47;;
30681;SDS011;17439;48.092;11.842;2023-04-10T09:06:14;10.23;;;5.03;;
30681;SDS011;17439;48.092;11.842;2023-04-10T09:08:40;9.93;;;5.25;;
30681;SDS011;17439;48.092;11.842;2023-04-10T09:11:07;8.57;;;4.88;;
30681;SDS011;17439;48.092;11.842;2023-04-10T09:13:34;8.73;;;4.82;;
30681;SDS011;17439;48.092;11.842;2023-04-10T09:16:02;9.15;;;5.18;;
30681;SDS011;17439;48.092;11.842;2023-04-10T09:18:45;9.48;;;5.28;;
30681;SDS011;17439;48.092;11.842;2023-04-10T09:21:13;9.40;;;5.15;;
30681;SDS011;17439;48.092;11.842;2023-04-10T09:23:42;9.05;;;5.40;;
30681;SDS011;17439;48.092;11.842;2023-04-10T09:28:55;9.98;;;5.35;;
30681;SDS011;17439;48.092;11.842;2023-04-10T09:31:28;9.25;;;4.90;;
30681;SDS011;17439;48.092;11.842;2023-04-10T09:34:06;7.20;;;4.68;;
30681;SDS011;17439;48.092;11.842;2023-04-10T09:36:34;9.48;;;5.55;;
30681;SDS011;17439;48.092;11.842;2023-04-10T09:39:02;10.88;;;6.13;;
30681;SDS011;17439;48.092;11.842;2023-04-10T09:41:32;10.35;;;5.60;;
30681;SDS011;17439;48.092;11.842;2023-04-10T09:44:08;10.30;;;5.60;;
30681;SDS011;17439;48.092;11.842;2023-04-10T09:46:36;10.07;;;5.57;;
30681;SDS011;17439;48.092;11.842;2023-04-10T09:49:03;10.32;;;5.93;;
30681;SDS011;17439;48.092;11.842;2023-04-10T09:51:31;11.07;;;6.10;;
30681;SDS011;17439;48.092;11.842;2023-04-10T09:53:58;10.20;;;5.80;;
30681;SDS011;17439;48.092;11.842;2023-04-10T09:56:25;9.88;;;5.72;;
30681;SDS011;17439;48.092;11.842;2023-04-10T10:01:22;8.00;;;4.40;;
30681;SDS011;17439;48.092;11.842;2023-04-10T10:03:51;8.73;;;4.90;;
30681;SDS011;17439;48.092;11.842;2023-04-10T10:06:20;7.32;;;4.38;;
30681;SDS011;17439;48.092;11.842;2023-04-10T10:11:20;7.47;;;3.78;;
30681;SDS011;17439;48.092;11.842;2023-04-10T10:13:50;8.07;;;4.38;;
30681;SDS011;17439;48.092;11.842;2023-04-10T10:16:20;9.77;;;4.78;;
30681;SDS011;17439;48.092;11.842;2023-04-10T10:21:35;6.63;;;4.07;;
30681;SDS011;17439;48.092;11.842;2023-04-10T10:24:06;9.02;;;4.82;;
30681;SDS011;17439;48.092;11.842;2023-04-10T10:26:34;6.15;;;4.00;;
30681;SDS011;17439;48.092;11.842;2023-04-10T10:29:04;7.05;;;3.92;;
30681;SDS011;17439;48.092;11.842;2023-04-10T10:31:33;6.22;;;3.60;;
30681;SDS011;17439;48.092;11.842;2023-04-10T10:34:00;7.40;;;4.57;;
30681;SDS011;17439;48.092;11.842;2023-04-10T10:36:27;6.25;;;3.83;;
30681;SDS011;17439;48.092;11.842;2023-04-10T10:39:07;5.45;;;3.65;;
30681;SDS011;17439;48.092;11.842;2023-04-10T10:44:48;4.78;;;3.05;;
30681;SDS011;17439;48.092;11.842;2023-04-10T10:47:23;5.80;;;3.53;;
30681;SDS011;17439;48.092;11.842;2023-04-10T10:49:54;6.03;;;3.65;;
30681;SDS011;17439;48.092;11.842;2023-04-10T10:52:38;6.15;;;3.53;;
30681;SDS011;17439;48.092;11.842;2023-04-10T10:57:54;6.32;;;3.75;;
30681;SDS011;17439;48.092;11.842;2023-04-10T11:00:25;5.70;;;3.67;;
30681;SDS011;17439;48.092;11.842;2023-04-10T11:03:25;5.88;;;3.38;;
30681;SDS011;17439;48.092;11.842;2023-04-10T11:13:31;6.47;;;3.30;;
30681;SDS011;17439;48.092;11.842;2023-04-10T11:16:01;5.13;;;3.35;;
30681;SDS011;17439;48.092;11.842;2023-04-10T11:21:11;5.90;;;3.17;;
30681;SDS011;17439;48.092;11.842;2023-04-10T11:24:01;5.25;;;3.10;;
30681;SDS011;17439;48.092;11.842;2023-04-10T11:29:00;4.90;;;3.17;;
30681;SDS011;17439;48.092;11.842;2023-04-10T11:31:28;4.40;;;2.58;;
30681;SDS011;17439;48.092;11.842;2023-04-10T11:36:22;4.55;;;3.05;;
30681;SDS011;17439;48.092;11.842;2023-04-10T11:41:32;4.28;;;2.70;;
30681;SDS011;17439;48.092;11.842;2023-04-10T11:44:01;4.25;;;2.53;;
30681;SDS011;17439;48.092;11.842;2023-04-10T11:46:30;4.53;;;2.90;;
30681;SDS011;17439;48.092;11.842;2023-04-10T11:48:58;5.90;;;3.38;;
30681;SDS011;17439;48.092;11.842;2023-04-10T11:51:26;5.05;;;2.85;;
30681;SDS011;17439;48.092;11.842;2023-04-10T11:54:03;3.78;;;2.65;;
30681;SDS011;17439;48.092;11.842;2023-04-10T11:56:30;4.38;;;2.47;;
30681;SDS011;17439;48.092;11.842;2023-04-10T11:58:57;4.75;;;2.40;;
30681;SDS011;17439;48.092;11.842;2023-04-10T12:01:24;6.45;;;3.45;;
30681;SDS011;17439;48.092;11.842;2023-04-10T12:03:51;4.82;;;2.95;;
30681;SDS011;17439;48.092;11.842;2023-04-10T12:06:18;4.50;;;2.65;;
30681;SDS011;17439;48.092;11.842;2023-04-10T12:08:45;4.32;;;3.00;;
30681;SDS011;17439;48.092;11.842;2023-04-10T12:11:12;5.38;;;2.90;;
30681;SDS011;17439;48.092;11.842;2023-04-10T12:13:39;4.05;;;2.67;;
30681;SDS011;17439;48.092;11.842;2023-04-10T12:16:06;4.53;;;2.63;;
30681;SDS011;17439;48.092;11.842;2023-04-10T12:18:34;4.00;;;2.45;;
30681;SDS011;17439;48.092;11.842;2023-04-10T12:21:01;4.32;;;1.98;;
30681;SDS011;17439;48.092;11.842;2023-04-10T12:23:32;3.55;;;2.30;;
30681;SDS011;17439;48.092;11.842;2023-04-10T12:26:08;4.47;;;2.45;;
30681;SDS011;17439;48.092;11.842;2023-04-10T12:28:35;3.20;;;2.55;;
30681;SDS011;17439;48.092;11.842;2023-04-10T12:31:02;4.65;;;2.65;;
30681;SDS011;17439;48.092;11.842;2023-04-10T12:33:30;4.93;;;3.55;;
30681;SDS011;17439;48.092;11.842;2023-04-10T12:35:56;4.60;;;2.75;;
30681;SDS011;17439;48.092;11.842;2023-04-10T12:41:09;3.28;;;2.28;;
30681;SDS011;17439;48.092;11.842;2023-04-10T12:46:05;3.78;;;2.45;;
30681;SDS011;17439;48.092;11.842;2023-04-10T12:48:33;4.35;;;2.35;;
30681;SDS011;17439;48.092;11.842;2023-04-10T12:51:00;4.43;;;2.40;;
30681;SDS011;17439;48.092;11.842;2023-04-10T12:53:27;6.68;;;3.00;;
30681;SDS011;17439;48.092;11.842;2023-04-10T12:56:01;6.57;;;3.53;;
30681;SDS011;17439;48.092;11.842;2023-04-10T12:58:31;4.18;;;2.70;;
30681;SDS011;17439;48.092;11.842;2023-04-10T13:01:01;7.05;;;2.40;;
30681;SDS011;17439;48.092;11.842;2023-04-10T13:03:30;5.10;;;3.10;;
30681;SDS011;17439;48.092;11.842;2023-04-10T13:05:59;4.15;;;2.70;;
30681;SDS011;17439;48.092;11.842;2023-04-10T13:08:26;3.75;;;2.58;;
30681;SDS011;17439;48.092;11.842;2023-04-10T13:10:52;4.97;;;2.60;;
30681;SDS011;17439;48.092;11.842;2023-04-10T13:13:19;4.18;;;2.40;;
30681;SDS011;17439;48.092;11.842;2023-04-10T13:15:45;3.78;;;1.63;;
30681;SDS011;17439;48.092;11.842;2023-04-10T13:18:12;4.05;;;2.50;;
30681;SDS011;17439;48.092;11.842;2023-04-10T13:20:39;3.45;;;1.90;;
30681;SDS011;17439;48.092;11.842;2023-04-10T13:23:06;4.43;;;1.88;;
30681;SDS011;17439;48.092;11.842;2023-04-10T13:25:35;6.20;;;2.50;;
30681;SDS011;17439;48.092;11.842;2023-04-10T13:28:03;2.75;;;2.10;;
30681;SDS011;17439;48.092;11.842;2023-04-10T13:30:31;4.75;;;2.30;;
30681;SDS011;17439;48.092;11.842;2023-04-10T13:32:57;5.22;;;3.05;;
30681;SDS011;17439;48.092;11.842;2023-04-10T13:35:24;3.40;;;2.83;;
30681;SDS011;17439;48.092;11.842;2023-04-10T13:37:51;3.50;;;2.40;;
30681;SDS011;17439;48.092;11.842;2023-04-10T13:40:17;4.57;;;3.28;;
30681;SDS011;17439;48.092;11.842;2023-04-10T13:42:44;3.90;;;2.38;;
30681;SDS011;17439;48.092;11.842;2023-04-10T13:45:11;3.70;;;2.20;;
30681;SDS011;17439;48.092;11.842;2023-04-10T13:47:37;3.38;;;2.00;;
30681;SDS011;17439;48.092;11.842;2023-04-10T13:50:04;4.35;;;2.38;;
30681;SDS011;17439;48.092;11.842;2023-04-10T13:52:31;2.93;;;2.30;;
30681;SDS011;17439;48.092;11.842;2023-04-10T13:54:58;4.28;;;2.40;;
30681;SDS011;17439;48.092;11.842;2023-04-10T13:57:26;3.40;;;2.42;;
30681;SDS011;17439;48.092;11.842;2023-04-10T13:59:52;3.60;;;2.50;;
30681;SDS011;17439;48.092;11.842;2023-04-10T14:02:19;3.45;;;1.77;;
30681;SDS011;17439;48.092;11.842;2023-04-10T14:04:46;3.55;;;2.22;;
30681;SDS011;17439;48.092;11.842;2023-04-10T14:07:13;3.67;;;2.33;;
30681;SDS011;17439;48.092;11.842;2023-04-10T14:09:40;3.58;;;2.30;;
30681;SDS011;17439;48.092;11.842;2023-04-10T14:12:06;4.10;;;2.22;;
30681;SDS011;17439;48.092;11.842;2023-04-10T14:14:33;4.28;;;2.20;;
30681;SDS011;17439;48.092;11.842;2023-04-10T14:16:59;3.40;;;2.28;;
30681;SDS011;17439;48.092;11.842;2023-04-10T14:19:26;5.22;;;2.38;;
30681;SDS011;17439;48.092;11.842;2023-04-10T14:21:53;3.15;;;1.70;;
30681;SDS011;17439;48.092;11.842;2023-04-10T14:24:19;3.60;;;2.45;;
30681;SDS011;17439;48.092;11.842;2023-04-10T14:26:46;2.85;;;2.15;;
30681;SDS011;17439;48.092;11.842;2023-04-10T14:29:12;2.92;;;1.70;;
30681;SDS011;17439;48.092;11.842;2023-04-10T14:31:43;3.03;;;2.05;;
30681;SDS011;17439;48.092;11.842;2023-04-10T14:34:22;2.88;;;2.08;;
30681;SDS011;17439;48.092;11.842;2023-04-10T14:36:49;3.47;;;2.10;;
30681;SDS011;17439;48.092;11.842;2023-04-10T14:39:16;3.10;;;2.05;;
30681;SDS011;17439;48.092;11.842;2023-04-10T14:41:42;4.55;;;2.55;;
30681;SDS011;17439;48.092;11.842;2023-04-10T14:44:09;2.90;;;2.13;;
30681;SDS011;17439;48.092;11.842;2023-04-10T14:46:36;2.75;;;2.15;;
30681;SDS011;17439;48.092;11.842;2023-04-10T14:49:02;4.25;;;2.17;;
30681;SDS011;17439;48.092;11.842;2023-04-10T14:51:29;3.15;;;1.90;;
30681;SDS011;17439;48.092;11.842;2023-04-10T14:53:56;3.83;;;2.10;;
30681;SDS011;17439;48.092;11.842;2023-04-10T14:56:22;4.75;;;2.40;;
30681;SDS011;17439;48.092;11.842;2023-04-10T14:58:49;3.40;;;2.25;;
30681;SDS011;17439;48.092;11.842;2023-04-10T15:01:16;2.83;;;1.83;;
30681;SDS011;17439;48.092;11.842;2023-04-10T15:03:45;2.55;;;1.75;;
30681;SDS011;17439;48.092;11.842;2023-04-10T15:06:13;3.72;;;1.92;;
30681;SDS011;17439;48.092;11.842;2023-04-10T15:08:39;3.65;;;2.00;;
30681;SDS011;17439;48.092;11.842;2023-04-10T15:11:06;3.45;;;1.98;;
30681;SDS011;17439;48.092;11.842;2023-04-10T15:13:33;3.35;;;2.15;;
30681;SDS011;17439;48.092;11.842;2023-04-10T15:15:59;2.33;;;1.40;;
30681;SDS011;17439;48.092;11.842;2023-04-10T15:18:26;3.20;;;2.05;;
30681;SDS011;17439;48.092;11.842;2023-04-10T15:20:53;2.92;;;2.13;;
30681;SDS011;17439;48.092;11.842;2023-04-10T15:23:20;3.60;;;2.22;;
30681;SDS011;17439;48.092;11.842;2023-04-10T15:25:47;2.80;;;2.25;;
30681;SDS011;17439;48.092;11.842;2023-04-10T15:28:13;4.05;;;2.05;;
30681;SDS011;17439;48.092;11.842;2023-04-10T15:30:43;3.22;;;2.00;;
30681;SDS011;17439;48.092;11.842;2023-04-10T15:33:10;2.78;;;2.28;;
30681;SDS011;17439;48.092;11.842;2023-04-10T15:35:36;3.05;;;2.20;;
30681;SDS011;17439;48.092;11.842;2023-04-10T15:38:03;3.30;;;2.03;;
30681;SDS011;17439;48.092;11.842;2023-04-10T15:40:31;3.22;;;1.90;;
30681;SDS011;17439;48.092;11.842;2023-04-10T15:42:57;2.75;;;1.70;;
30681;SDS011;17439;48.092;11.842;2023-04-10T15:45:24;2.50;;;1.70;;
30681;SDS011;17439;48.092;11.842;2023-04-10T15:47:51;3.83;;;2.00;;
30681;SDS011;17439;48.092;11.842;2023-04-10T15:50:18;3.53;;;2.10;;
30681;SDS011;17439;48.092;11.842;2023-04-10T15:52:45;2.47;;;1.55;;
30681;SDS011;17439;48.092;11.842;2023-04-10T15:55:11;3.25;;;2.10;;
30681;SDS011;17439;48.092;11.842;2023-04-10T15:57:38;2.78;;;1.83;;